sensor_id;sensor_type;location;lat;lon;timestamp;P1;durP1;ratioP1;P2;durP2;ratioP2
15049;SDS011;7622;42.724;23.250;2023-04-01T00:01:56;28.03;;;17.53;;
15049;SDS011;7622;42.724;23.250;2023-04-01T00:04:24;31.37;;;17.13;;
15049;SDS011;7622;42.724;23.250;2023-04-01T00:06:51;29.63;;;14.83;;
15049;SDS011;7622;42.724;23.250;2023-04-01T00:09:18;30.77;;;16.23;;
15049;SDS011;7622;42.724;23.250;2023-04-01T00:11:45;26.73;;;15.87;;
15049;SDS011;7622;42.724;23.250;2023-04-01T00:14:12;22.70;;;13.93;;
15049;SDS011;7622;42.724;23.250;2023-04-01T00:16:39;30.77;;;14.97;;
15049;SDS011;7622;42.724;23.250;2023-04-01T00:19:05;26.63;;;14.20;;
15049;SDS011;7622;42.724;23.250;2023-04-01T00:21:33;25.23;;;14.47;;
15049;SDS011;7622;42.724;23.250;2023-04-01T00:24:00;23.53;;;12.13;;
15049;SDS011;7622;42.724;23.250;2023-04-01T00:26:27;18.20;;;11.73;;
15049;SDS011;7622;42.724;23.250;2023-04-01T00:28:54;24.63;;;11.90;;
15049;SDS011;7622;42.724;23.250;2023-04-01T00:31:21;23.60;;;11.90;;
15049;SDS011;7622;42.724;23.250;2023-04-01T00:33:48;21.43;;;11.93;;
15049;SDS011;7622;42.724;23.250;2023-04-01T00:36:16;19.63;;;10.50;;
15049;SDS011;7622;42.724;23.250;2023-04-01T00:38:46;19.03;;;11.23;;
15049;SDS011;7622;42.724;23.250;2023-04-01T00:41:14;20.50;;;10.73;;
15049;SDS011;7622;42.724;23.250;2023-04-01T00:43:42;15.57;;;9.40;;
15049;SDS011;7622;42.724;23.250;2023-04-01T00:46:10;16.13;;;9.87;;
15049;SDS011;7622;42.724;23.250;2023-04-01T00:48:38;21.70;;;10.10;;
15049;SDS011;7622;42.724;23.250;2023-04-01T00:51:08;18.93;;;10.37;;
15049;SDS011;7622;42.724;23.250;2023-04-01T00:53:38;17.93;;;10.10;;
15049;SDS011;7622;42.724;23.250;2023-04-01T00:56:10;16.03;;;10.33;;
15049;SDS011;7622;42.724;23.250;2023-04-01T00:58:41;22.00;;;11.53;;
15049;SDS011;7622;42.724;23.250;2023-04-01T01:01:10;20.20;;;11.50;;
15049;SDS011;7622;42.724;23.250;2023-04-01T01:03:36;19.37;;;11.83;;
15049;SDS011;7622;42.724;23.250;2023-04-01T01:06:08;18.83;;;11.67;;
15049;SDS011;7622;42.724;23.250;2023-04-01T01:09:01;18.77;;;11.93;;
15049;SDS011;7622;42.724;23.250;2023-04-01T01:11:36;21.77;;;13.77;;
15049;SDS011;7622;42.724;23.250;2023-04-01T01:14:09;21.17;;;13.50;;
15049;SDS011;7622;42.724;23.250;2023-04-01T01:16:47;23.67;;;15.57;;
15049;SDS011;7622;42.724;23.250;2023-04-01T01:19:27;29.07;;;17.83;;
15049;SDS011;7622;42.724;23.250;2023-04-01T01:22:08;23.60;;;14.80;;
15049;SDS011;7622;42.724;23.250;2023-04-01T01:24:55;19.73;;;12.40;;
15049;SDS011;7622;42.724;23.250;2023-04-01T01:27:37;21.60;;;13.37;;
15049;SDS011;7622;42.724;23.250;2023-04-01T01:30:12;19.90;;;12.73;;
15049;SDS011;7622;42.724;23.250;2023-04-01T01:35:42;22.03;;;13.47;;
15049;SDS011;7622;42.724;23.250;2023-04-01T01:38:14;18.37;;;12.23;;
15049;SDS011;7622;42.724;23.250;2023-04-01T01:40:44;17.57;;;11.23;;
15049;SDS011;7622;42.724;23.250;2023-04-01T01:43:17;20.20;;;10.83;;
15049;SDS011;7622;42.724;23.250;2023-04-01T01:45:50;16.43;;;10.73;;
15049;SDS011;7622;42.724;23.250;2023-04-01T01:48:21;17.27;;;10.30;;
15049;SDS011;7622;42.724;23.250;2023-04-01T01:50:50;18.20;;;11.53;;
15049;SDS011;7622;42.724;23.250;2023-04-01T01:53:18;14.87;;;10.67;;
15049;SDS011;7622;42.724;23.250;2023-04-01T01:55:46;17.23;;;11.17;;
15049;SDS011;7622;42.724;23.250;2023-04-01T01:58:14;20.40;;;11.60;;
15049;SDS011;7622;42.724;23.250;2023-04-01T02:00:46;20.97;;;11.83;;
15049;SDS011;7622;42.724;23.250;2023-04-01T02:03:17;20.23;;;11.53;;
15049;SDS011;7622;42.724;23.250;2023-04-01T02:05:47;22.13;;;11.93;;
15049;SDS011;7622;42.724;23.250;2023-04-01T02:08:20;22.23;;;11.10;;
15049;SDS011;7622;42.724;23.250;2023-04-01T02:10:53;17.50;;;11.13;;
15049;SDS011;7622;42.724;23.250;2023-04-01T02:13:26;17.23;;;10.80;;
15049;SDS011;7622;42.724;23.250;2023-04-01T02:15:58;14.23;;;8.50;;
15049;SDS011;7622;42.724;23.250;2023-04-01T02:18:29;17.77;;;9.33;;
15049;SDS011;7622;42.724;23.250;2023-04-01T02:20:59;13.20;;;8.50;;
15049;SDS011;7622;42.724;23.250;2023-04-01T02:23:28;14.33;;;9.80;;
15049;SDS011;7622;42.724;23.250;2023-04-01T02:25:55;18.23;;;9.63;;
15049;SDS011;7622;42.724;23.250;2023-04-01T02:28:22;14.03;;;9.43;;
15049;SDS011;7622;42.724;23.250;2023-04-01T02:30:50;10.50;;;7.03;;
15049;SDS011;7622;42.724;23.250;2023-04-01T02:33:18;17.37;;;8.77;;
15049;SDS011;7622;42.724;23.250;2023-04-01T02:35:46;15.60;;;9.57;;
15049;SDS011;7622;42.724;23.250;2023-04-01T02:38:13;13.83;;;9.93;;
15049;SDS011;7622;42.724;23.250;2023-04-01T02:40:46;17.33;;;10.70;;
15049;SDS011;7622;42.724;23.250;2023-04-01T02:43:15;15.07;;;10.63;;
15049;SDS011;7622;42.724;23.250;2023-04-01T02:45:44;16.17;;;9.83;;
15049;SDS011;7622;42.724;23.250;2023-04-01T02:48:10;15.93;;;10.50;;
15049;SDS011;7622;42.724;23.250;2023-04-01T02:50:38;15.33;;;10.17;;
15049;SDS011;7622;42.724;23.250;2023-04-01T02:53:04;20.80;;;13.40;;
15049;SDS011;7622;42.724;23.250;2023-04-01T02:55:31;19.17;;;12.07;;
15049;SDS011;7622;42.724;23.250;2023-04-01T02:58:00;22.63;;;13.73;;
15049;SDS011;7622;42.724;23.250;2023-04-01T03:00:27;25.00;;;15.70;;
15049;SDS011;7622;42.724;23.250;2023-04-01T03:02:54;21.10;;;13.87;;
15049;SDS011;7622;42.724;23.250;2023-04-01T03:05:21;23.40;;;14.33;;
15049;SDS011;7622;42.724;23.250;2023-04-01T03:07:49;25.27;;;15.20;;
15049;SDS011;7622;42.724;23.250;2023-04-01T03:10:15;23.00;;;14.43;;
15049;SDS011;7622;42.724;23.250;2023-04-01T03:12:42;21.10;;;13.80;;
15049;SDS011;7622;42.724;23.250;2023-04-01T03:15:11;21.40;;;13.13;;
15049;SDS011;7622;42.724;23.250;2023-04-01T03:17:39;19.57;;;12.47;;
15049;SDS011;7622;42.724;23.250;2023-04-01T03:20:07;19.00;;;12.90;;
15049;SDS011;7622;42.724;23.250;2023-04-01T03:22:35;18.37;;;11.43;;
15049;SDS011;7622;42.724;23.250;2023-04-01T03:25:03;22.23;;;11.03;;
15049;SDS011;7622;42.724;23.250;2023-04-01T03:27:30;15.13;;;10.73;;
15049;SDS011;7622;42.724;23.250;2023-04-01T03:29:57;19.43;;;11.30;;
15049;SDS011;7622;42.724;23.250;2023-04-01T03:32:25;17.47;;;10.47;;
15049;SDS011;7622;42.724;23.250;2023-04-01T03:34:52;13.50;;;9.83;;
15049;SDS011;7622;42.724;23.250;2023-04-01T03:37:19;11.53;;;8.60;;
15049;SDS011;7622;42.724;23.250;2023-04-01T03:39:46;15.33;;;9.73;;
15049;SDS011;7622;42.724;23.250;2023-04-01T03:42:12;17.77;;;9.50;;
15049;SDS011;7622;42.724;23.250;2023-04-01T03:44:39;18.03;;;8.90;;
15049;SDS011;7622;42.724;23.250;2023-04-01T03:47:06;13.87;;;9.67;;
15049;SDS011;7622;42.724;23.250;2023-04-01T03:49:35;15.23;;;8.70;;
15049;SDS011;7622;42.724;23.250;2023-04-01T03:52:02;15.53;;;9.00;;
15049;SDS011;7622;42.724;23.250;2023-04-01T03:54:29;11.43;;;8.87;;
15049;SDS011;7622;42.724;23.250;2023-04-01T03:56:56;19.10;;;10.20;;
15049;SDS011;7622;42.724;23.250;2023-04-01T03:59:23;16.50;;;9.43;;
15049;SDS011;7622;42.724;23.250;2023-04-01T04:01:49;12.73;;;9.07;;
15049;SDS011;7622;42.724;23.250;2023-04-01T04:04:16;15.90;;;10.60;;
15049;SDS011;7622;42.724;23.250;2023-04-01T04:06:44;18.77;;;10.43;;
15049;SDS011;7622;42.724;23.250;2023-04-01T04:09:11;19.67;;;12.00;;
15049;SDS011;7622;42.724;23.250;2023-04-01T04:11:38;17.83;;;10.20;;
15049;SDS011;7622;42.724;23.250;2023-04-01T04:14:05;15.27;;;10.23;;
15049;SDS011;7622;42.724;23.250;2023-04-01T04:16:31;15.73;;;9.97;;
15049;SDS011;7622;42.724;23.250;2023-04-01T04:19:01;18.87;;;10.53;;
15049;SDS011;7622;42.724;23.250;2023-04-01T04:21:28;18.47;;;9.97;;
15049;SDS011;7622;42.724;23.250;2023-04-01T04:23:57;17.63;;;10.03;;
15049;SDS011;7622;42.724;23.250;2023-04-01T04:26:24;18.40;;;9.23;;
15049;SDS011;7622;42.724;23.250;2023-04-01T04:28:51;14.07;;;9.60;;
15049;SDS011;7622;42.724;23.250;2023-04-01T04:31:18;19.17;;;9.10;;
15049;SDS011;7622;42.724;23.250;2023-04-01T04:33:45;12.30;;;8.17;;
15049;SDS011;7622;42.724;23.250;2023-04-01T04:36:12;10.23;;;7.50;;
15049;SDS011;7622;42.724;23.250;2023-04-01T04:38:39;9.17;;;7.47;;
15049;SDS011;7622;42.724;23.250;2023-04-01T04:41:09;17.90;;;7.93;;
15049;SDS011;7622;42.724;23.250;2023-04-01T04:43:37;13.47;;;8.83;;
15049;SDS011;7622;42.724;23.250;2023-04-01T04:46:05;13.37;;;8.73;;
15049;SDS011;7622;42.724;23.250;2023-04-01T04:48:33;12.60;;;8.30;;
15049;SDS011;7622;42.724;23.250;2023-04-01T04:50:59;17.30;;;9.23;;
15049;SDS011;7622;42.724;23.250;2023-04-01T04:53:26;10.50;;;8.53;;
15049;SDS011;7622;42.724;23.250;2023-04-01T04:55:53;12.13;;;8.57;;
15049;SDS011;7622;42.724;23.250;2023-04-01T04:58:22;14.70;;;8.43;;
15049;SDS011;7622;42.724;23.250;2023-04-01T05:00:48;14.13;;;8.57;;
15049;SDS011;7622;42.724;23.250;2023-04-01T05:03:15;14.63;;;8.30;;
15049;SDS011;7622;42.724;23.250;2023-04-01T05:05:47;11.13;;;8.53;;
15049;SDS011;7622;42.724;23.250;2023-04-01T05:08:15;16.40;;;9.00;;
15049;SDS011;7622;42.724;23.250;2023-04-01T05:10:41;14.30;;;8.87;;
15049;SDS011;7622;42.724;23.250;2023-04-01T05:13:08;19.00;;;9.27;;
15049;SDS011;7622;42.724;23.250;2023-04-01T05:15:36;12.70;;;8.10;;
15049;SDS011;7622;42.724;23.250;2023-04-01T05:18:03;12.67;;;8.03;;
15049;SDS011;7622;42.724;23.250;2023-04-01T05:20:30;10.20;;;7.03;;
15049;SDS011;7622;42.724;23.250;2023-04-01T05:22:57;15.97;;;8.53;;
15049;SDS011;7622;42.724;23.250;2023-04-01T05:25:24;19.27;;;8.83;;
15049;SDS011;7622;42.724;23.250;2023-04-01T05:27:51;13.67;;;7.73;;
15049;SDS011;7622;42.724;23.250;2023-04-01T05:30:18;17.37;;;8.77;;
15049;SDS011;7622;42.724;23.250;2023-04-01T05:32:46;15.73;;;7.30;;
15049;SDS011;7622;42.724;23.250;2023-04-01T05:35:13;11.47;;;6.80;;
15049;SDS011;7622;42.724;23.250;2023-04-01T05:37:40;14.13;;;7.60;;
15049;SDS011;7622;42.724;23.250;2023-04-01T05:40:07;11.57;;;8.07;;
15049;SDS011;7622;42.724;23.250;2023-04-01T05:42:35;18.63;;;7.97;;
15049;SDS011;7622;42.724;23.250;2023-04-01T05:45:02;17.00;;;8.37;;
15049;SDS011;7622;42.724;23.250;2023-04-01T05:47:29;14.60;;;7.77;;
15049;SDS011;7622;42.724;23.250;2023-04-01T05:49:57;13.03;;;7.53;;
15049;SDS011;7622;42.724;23.250;2023-04-01T05:52:23;10.20;;;7.23;;
15049;SDS011;7622;42.724;23.250;2023-04-01T05:54:50;13.00;;;6.90;;
15049;SDS011;7622;42.724;23.250;2023-04-01T05:57:17;13.13;;;7.20;;
15049;SDS011;7622;42.724;23.250;2023-04-01T05:59:44;17.10;;;7.13;;
15049;SDS011;7622;42.724;23.250;2023-04-01T06:02:11;11.03;;;7.53;;
15049;SDS011;7622;42.724;23.250;2023-04-01T06:04:44;14.67;;;5.87;;
15049;SDS011;7622;42.724;23.250;2023-04-01T06:07:13;9.53;;;6.57;;
15049;SDS011;7622;42.724;23.250;2023-04-01T06:09:41;13.83;;;7.73;;
15049;SDS011;7622;42.724;23.250;2023-04-01T06:12:22;17.17;;;9.20;;
15049;SDS011;7622;42.724;23.250;2023-04-01T06:15:03;13.47;;;9.17;;
15049;SDS011;7622;42.724;23.250;2023-04-01T06:17:46;17.40;;;9.77;;
15049;SDS011;7622;42.724;23.250;2023-04-01T06:20:29;18.23;;;9.83;;
15049;SDS011;7622;42.724;23.250;2023-04-01T06:23:06;15.70;;;8.90;;
15049;SDS011;7622;42.724;23.250;2023-04-01T06:28:58;15.17;;;6.67;;
15049;SDS011;7622;42.724;23.250;2023-04-01T06:37:34;12.13;;;6.63;;
15049;SDS011;7622;42.724;23.250;2023-04-01T06:40:38;11.77;;;6.20;;
15049;SDS011;7622;42.724;23.250;2023-04-01T06:43:15;13.37;;;7.30;;
15049;SDS011;7622;42.724;23.250;2023-04-01T06:45:48;16.87;;;6.40;;
15049;SDS011;7622;42.724;23.250;2023-04-01T06:48:36;12.10;;;7.20;;
15049;SDS011;7622;42.724;23.250;2023-04-01T06:51:17;14.77;;;6.47;;
15049;SDS011;7622;42.724;23.250;2023-04-01T06:53:54;16.10;;;6.97;;
15049;SDS011;7622;42.724;23.250;2023-04-01T06:56:28;14.60;;;8.33;;
15049;SDS011;7622;42.724;23.250;2023-04-01T06:58:56;20.63;;;8.80;;
15049;SDS011;7622;42.724;23.250;2023-04-01T07:01:28;13.83;;;6.90;;
15049;SDS011;7622;42.724;23.250;2023-04-01T07:04:00;11.27;;;7.83;;
15049;SDS011;7622;42.724;23.250;2023-04-01T07:06:33;14.67;;;7.10;;
15049;SDS011;7622;42.724;23.250;2023-04-01T07:09:04;8.00;;;5.83;;
15049;SDS011;7622;42.724;23.250;2023-04-01T07:11:37;11.87;;;5.73;;
15049;SDS011;7622;42.724;23.250;2023-04-01T07:14:06;6.93;;;5.33;;
15049;SDS011;7622;42.724;23.250;2023-04-01T07:16:41;12.37;;;5.47;;
15049;SDS011;7622;42.724;23.250;2023-04-01T07:19:12;8.50;;;4.93;;
15049;SDS011;7622;42.724;23.250;2023-04-01T07:21:46;17.67;;;5.33;;
15049;SDS011;7622;42.724;23.250;2023-04-01T07:24:17;5.00;;;4.07;;
15049;SDS011;7622;42.724;23.250;2023-04-01T07:26:49;9.37;;;4.60;;
15049;SDS011;7622;42.724;23.250;2023-04-01T07:29:20;7.07;;;4.30;;
15049;SDS011;7622;42.724;23.250;2023-04-01T07:31:55;8.83;;;4.27;;
15049;SDS011;7622;42.724;23.250;2023-04-01T07:34:34;9.37;;;5.17;;
15049;SDS011;7622;42.724;23.250;2023-04-01T07:37:08;7.20;;;4.70;;
15049;SDS011;7622;42.724;23.250;2023-04-01T07:39:42;11.03;;;4.63;;
15049;SDS011;7622;42.724;23.250;2023-04-01T07:42:21;9.57;;;4.20;;
15049;SDS011;7622;42.724;23.250;2023-04-01T07:44:54;4.17;;;3.77;;
15049;SDS011;7622;42.724;23.250;2023-04-01T07:47:33;8.47;;;4.93;;
15049;SDS011;7622;42.724;23.250;2023-04-01T07:50:10;10.60;;;4.87;;
15049;SDS011;7622;42.724;23.250;2023-04-01T07:52:47;9.20;;;4.73;;
15049;SDS011;7622;42.724;23.250;2023-04-01T07:55:20;14.20;;;5.10;;
15049;SDS011;7622;42.724;23.250;2023-04-01T07:57:55;12.90;;;5.37;;
15049;SDS011;7622;42.724;23.250;2023-04-01T08:00:29;7.23;;;4.70;;
15049;SDS011;7622;42.724;23.250;2023-04-01T08:03:16;29.80;;;6.90;;
15049;SDS011;7622;42.724;23.250;2023-04-01T08:05:53;10.93;;;4.97;;
15049;SDS011;7622;42.724;23.250;2023-04-01T08:08:25;10.70;;;5.10;;
15049;SDS011;7622;42.724;23.250;2023-04-01T08:11:00;8.27;;;5.33;;
15049;SDS011;7622;42.724;23.250;2023-04-01T08:13:37;14.73;;;5.17;;
15049;SDS011;7622;42.724;23.250;2023-04-01T08:16:09;8.17;;;4.73;;
15049;SDS011;7622;42.724;23.250;2023-04-01T08:18:43;17.43;;;5.30;;
15049;SDS011;7622;42.724;23.250;2023-04-01T08:21:19;14.93;;;5.63;;
15049;SDS011;7622;42.724;23.250;2023-04-01T08:23:51;8.13;;;5.50;;
15049;SDS011;7622;42.724;23.250;2023-04-01T08:26:23;10.23;;;5.17;;
15049;SDS011;7622;42.724;23.250;2023-04-01T08:28:59;11.00;;;5.47;;
15049;SDS011;7622;42.724;23.250;2023-04-01T08:31:29;8.00;;;4.37;;
15049;SDS011;7622;42.724;23.250;2023-04-01T08:34:01;7.83;;;4.93;;
15049;SDS011;7622;42.724;23.250;2023-04-01T08:36:31;7.17;;;5.03;;
15049;SDS011;7622;42.724;23.250;2023-04-01T08:39:02;10.60;;;4.93;;
15049;SDS011;7622;42.724;23.250;2023-04-01T08:47:32;10.43;;;3.90;;
15049;SDS011;7622;42.724;23.250;2023-04-01T08:50:23;5.87;;;3.90;;
15049;SDS011;7622;42.724;23.250;2023-04-01T08:53:00;7.70;;;3.97;;
15049;SDS011;7622;42.724;23.250;2023-04-01T08:55:41;68.60;;;8.23;;
15049;SDS011;7622;42.724;23.250;2023-04-01T09:01:17;6.13;;;3.63;;
15049;SDS011;7622;42.724;23.250;2023-04-01T09:03:55;6.87;;;3.07;;
15049;SDS011;7622;42.724;23.250;2023-04-01T09:06:34;7.50;;;2.57;;
15049;SDS011;7622;42.724;23.250;2023-04-01T09:09:10;5.47;;;3.10;;
15049;SDS011;7622;42.724;23.250;2023-04-01T09:12:10;10.53;;;3.30;;
15049;SDS011;7622;42.724;23.250;2023-04-01T09:18:23;13.73;;;4.60;;
15049;SDS011;7622;42.724;23.250;2023-04-01T09:24:07;13.77;;;3.43;;
15049;SDS011;7622;42.724;23.250;2023-04-01T09:27:04;7.83;;;3.27;;
15049;SDS011;7622;42.724;23.250;2023-04-01T09:29:48;9.17;;;3.17;;
15049;SDS011;7622;42.724;23.250;2023-04-01T09:32:42;8.60;;;3.33;;
15049;SDS011;7622;42.724;23.250;2023-04-01T09:35:24;15.40;;;3.13;;
15049;SDS011;7622;42.724;23.250;2023-04-01T09:38:00;11.60;;;3.60;;
15049;SDS011;7622;42.724;23.250;2023-04-01T09:40:42;4.83;;;2.47;;
15049;SDS011;7622;42.724;23.250;2023-04-01T09:43:25;8.93;;;3.10;;
15049;SDS011;7622;42.724;23.250;2023-04-01T09:48:50;9.60;;;3.37;;
15049;SDS011;7622;42.724;23.250;2023-04-01T09:51:48;6.50;;;3.50;;
15049;SDS011;7622;42.724;23.250;2023-04-01T09:54:26;6.20;;;3.03;;
15049;SDS011;7622;42.724;23.250;2023-04-01T10:00:27;7.93;;;3.60;;
15049;SDS011;7622;42.724;23.250;2023-04-01T10:03:20;10.00;;;3.30;;
15049;SDS011;7622;42.724;23.250;2023-04-01T10:06:18;12.63;;;3.53;;
15049;SDS011;7622;42.724;23.250;2023-04-01T10:09:42;4.90;;;2.90;;
15049;SDS011;7622;42.724;23.250;2023-04-01T10:13:08;11.60;;;2.07;;
15049;SDS011;7622;42.724;23.250;2023-04-01T10:16:00;7.97;;;2.57;;
15049;SDS011;7622;42.724;23.250;2023-04-01T10:18:47;3.33;;;2.10;;
15049;SDS011;7622;42.724;23.250;2023-04-01T10:21:50;10.47;;;2.47;;
15049;SDS011;7622;42.724;23.250;2023-04-01T10:24:48;5.37;;;2.57;;
15049;SDS011;7622;42.724;23.250;2023-04-01T10:27:40;8.47;;;2.20;;
15049;SDS011;7622;42.724;23.250;2023-04-01T10:30:28;7.93;;;2.63;;
15049;SDS011;7622;42.724;23.250;2023-04-01T10:33:19;5.83;;;2.20;;
15049;SDS011;7622;42.724;23.250;2023-04-01T10:36:30;4.53;;;2.20;;
15049;SDS011;7622;42.724;23.250;2023-04-01T10:39:29;9.57;;;2.90;;
15049;SDS011;7622;42.724;23.250;2023-04-01T10:45:35;6.13;;;2.60;;
15049;SDS011;7622;42.724;23.250;2023-04-01T10:51:23;6.80;;;2.80;;
15049;SDS011;7622;42.724;23.250;2023-04-01T10:54:18;8.83;;;2.77;;
15049;SDS011;7622;42.724;23.250;2023-04-01T10:57:01;5.20;;;2.80;;
15049;SDS011;7622;42.724;23.250;2023-04-01T10:59:45;6.23;;;3.40;;
15049;SDS011;7622;42.724;23.250;2023-04-01T11:12:07;5.17;;;3.80;;
15049;SDS011;7622;42.724;23.250;2023-04-01T11:14:59;7.90;;;3.00;;
15049;SDS011;7622;42.724;23.250;2023-04-01T11:18:11;4.30;;;3.40;;
15049;SDS011;7622;42.724;23.250;2023-04-01T11:24:26;8.67;;;3.30;;
15049;SDS011;7622;42.724;23.250;2023-04-01T11:27:24;5.13;;;2.33;;
15049;SDS011;7622;42.724;23.250;2023-04-01T11:30:09;2.07;;;1.87;;
15049;SDS011;7622;42.724;23.250;2023-04-01T11:32:43;8.30;;;3.40;;
15049;SDS011;7622;42.724;23.250;2023-04-01T11:41:30;7.43;;;2.80;;
15049;SDS011;7622;42.724;23.250;2023-04-01T11:49:51;3.13;;;2.07;;
15049;SDS011;7622;42.724;23.250;2023-04-01T11:52:31;6.47;;;2.60;;
15049;SDS011;7622;42.724;23.250;2023-04-01T11:55:23;4.70;;;2.60;;
15049;SDS011;7622;42.724;23.250;2023-04-01T11:57:59;2.50;;;2.30;;
15049;SDS011;7622;42.724;23.250;2023-04-01T12:00:57;4.70;;;2.73;;
15049;SDS011;7622;42.724;23.250;2023-04-01T12:06:50;6.80;;;3.00;;
15049;SDS011;7622;42.724;23.250;2023-04-01T12:09:24;8.17;;;3.27;;
15049;SDS011;7622;42.724;23.250;2023-04-01T12:12:03;7.43;;;2.90;;
15049;SDS011;7622;42.724;23.250;2023-04-01T12:14:47;4.80;;;2.70;;
15049;SDS011;7622;42.724;23.250;2023-04-01T12:17:28;3.40;;;3.10;;
15049;SDS011;7622;42.724;23.250;2023-04-01T12:20:11;3.40;;;3.13;;
15049;SDS011;7622;42.724;23.250;2023-04-01T12:22:58;5.43;;;3.37;;
15049;SDS011;7622;42.724;23.250;2023-04-01T12:25:56;6.73;;;4.20;;
15049;SDS011;7622;42.724;23.250;2023-04-01T12:28:37;4.57;;;4.17;;
15049;SDS011;7622;42.724;23.250;2023-04-01T12:37:10;4.07;;;2.80;;
15049;SDS011;7622;42.724;23.250;2023-04-01T12:39:48;5.07;;;2.50;;
15049;SDS011;7622;42.724;23.250;2023-04-01T12:42:31;3.60;;;2.90;;
15049;SDS011;7622;42.724;23.250;2023-04-01T12:45:18;3.40;;;3.10;;
15049;SDS011;7622;42.724;23.250;2023-04-01T12:53:54;6.40;;;3.23;;
15049;SDS011;7622;42.724;23.250;2023-04-01T12:56:50;3.20;;;2.17;;
15049;SDS011;7622;42.724;23.250;2023-04-01T12:59:41;4.37;;;3.00;;
15049;SDS011;7622;42.724;23.250;2023-04-01T13:02:20;6.27;;;2.90;;
15049;SDS011;7622;42.724;23.250;2023-04-01T13:05:11;2.80;;;2.53;;
15049;SDS011;7622;42.724;23.250;2023-04-01T13:07:49;7.23;;;3.37;;
15049;SDS011;7622;42.724;23.250;2023-04-01T13:10:44;6.80;;;5.07;;
15049;SDS011;7622;42.724;23.250;2023-04-01T13:13:47;5.30;;;3.97;;
15049;SDS011;7622;42.724;23.250;2023-04-01T13:16:25;4.40;;;4.00;;
15049;SDS011;7622;42.724;23.250;2023-04-01T13:18:57;4.13;;;3.47;;
15049;SDS011;7622;42.724;23.250;2023-04-01T13:21:32;6.23;;;3.30;;
15049;SDS011;7622;42.724;23.250;2023-04-01T13:24:11;8.17;;;4.50;;
15049;SDS011;7622;42.724;23.250;2023-04-01T13:26:50;6.37;;;3.63;;
15049;SDS011;7622;42.724;23.250;2023-04-01T13:29:23;3.87;;;3.43;;
15049;SDS011;7622;42.724;23.250;2023-04-01T13:32:00;4.17;;;3.60;;
15049;SDS011;7622;42.724;23.250;2023-04-01T13:34:47;2.67;;;2.27;;
15049;SDS011;7622;42.724;23.250;2023-04-01T13:37:30;2.50;;;2.30;;
15049;SDS011;7622;42.724;23.250;2023-04-01T13:40:14;4.17;;;2.70;;
15049;SDS011;7622;42.724;23.250;2023-04-01T13:42:53;2.13;;;2.03;;
15049;SDS011;7622;42.724;23.250;2023-04-01T13:45:24;4.50;;;2.40;;
15049;SDS011;7622;42.724;23.250;2023-04-01T13:47:59;2.37;;;1.93;;
15049;SDS011;7622;42.724;23.250;2023-04-01T13:50:46;2.20;;;1.80;;
15049;SDS011;7622;42.724;23.250;2023-04-01T13:53:45;4.30;;;2.40;;
15049;SDS011;7622;42.724;23.250;2023-04-01T13:56:36;5.03;;;2.17;;
15049;SDS011;7622;42.724;23.250;2023-04-01T13:59:15;2.10;;;1.90;;
15049;SDS011;7622;42.724;23.250;2023-04-01T14:02:21;2.53;;;1.90;;
15049;SDS011;7622;42.724;23.250;2023-04-01T14:08:16;2.90;;;2.63;;
15049;SDS011;7622;42.724;23.250;2023-04-01T14:10:54;2.93;;;1.77;;
15049;SDS011;7622;42.724;23.250;2023-04-01T14:13:34;4.90;;;2.70;;
15049;SDS011;7622;42.724;23.250;2023-04-01T14:16:14;2.93;;;2.10;;
15049;SDS011;7622;42.724;23.250;2023-04-01T14:19:00;3.47;;;2.10;;
15049;SDS011;7622;42.724;23.250;2023-04-01T14:21:35;1.97;;;1.33;;
15049;SDS011;7622;42.724;23.250;2023-04-01T14:24:18;2.73;;;1.77;;
15049;SDS011;7622;42.724;23.250;2023-04-01T14:30:16;4.13;;;1.93;;
15049;SDS011;7622;42.724;23.250;2023-04-01T14:32:56;1.80;;;1.70;;
15049;SDS011;7622;42.724;23.250;2023-04-01T14:35:37;1.60;;;1.50;;
15049;SDS011;7622;42.724;23.250;2023-04-01T14:38:16;1.80;;;1.70;;
15049;SDS011;7622;42.724;23.250;2023-04-01T14:40:56;4.73;;;1.57;;
15049;SDS011;7622;42.724;23.250;2023-04-01T14:43:41;2.73;;;1.77;;
15049;SDS011;7622;42.724;23.250;2023-04-01T14:46:32;2.27;;;1.80;;
15049;SDS011;7622;42.724;23.250;2023-04-01T14:49:16;5.43;;;2.97;;
15049;SDS011;7622;42.724;23.250;2023-04-01T14:51:48;5.23;;;3.47;;
15049;SDS011;7622;42.724;23.250;2023-04-01T14:54:17;5.27;;;2.40;;
15049;SDS011;7622;42.724;23.250;2023-04-01T14:56:49;5.10;;;3.03;;
15049;SDS011;7622;42.724;23.250;2023-04-01T14:59:25;3.43;;;2.20;;
15049;SDS011;7622;42.724;23.250;2023-04-01T15:01:57;2.43;;;1.47;;
15049;SDS011;7622;42.724;23.250;2023-04-01T15:10:38;1.40;;;1.30;;
15049;SDS011;7622;42.724;23.250;2023-04-01T15:13:19;1.50;;;1.40;;
15049;SDS011;7622;42.724;23.250;2023-04-01T15:16:01;6.90;;;3.53;;
15049;SDS011;7622;42.724;23.250;2023-04-01T15:18:40;5.60;;;3.63;;
15049;SDS011;7622;42.724;23.250;2023-04-01T15:21:19;4.20;;;3.57;;
15049;SDS011;7622;42.724;23.250;2023-04-01T15:24:02;5.10;;;3.70;;
15049;SDS011;7622;42.724;23.250;2023-04-01T15:26:43;5.47;;;3.47;;
15049;SDS011;7622;42.724;23.250;2023-04-01T15:32:10;4.93;;;3.80;;
15049;SDS011;7622;42.724;23.250;2023-04-01T15:34:45;4.60;;;3.60;;
15049;SDS011;7622;42.724;23.250;2023-04-01T15:37:19;10.50;;;3.80;;
15049;SDS011;7622;42.724;23.250;2023-04-01T15:39:54;7.83;;;4.23;;
15049;SDS011;7622;42.724;23.250;2023-04-01T15:42:33;3.77;;;2.77;;
15049;SDS011;7622;42.724;23.250;2023-04-01T15:45:26;1.57;;;1.47;;
15049;SDS011;7622;42.724;23.250;2023-04-01T15:48:06;1.03;;;0.90;;
15049;SDS011;7622;42.724;23.250;2023-04-01T15:50:56;2.00;;;1.90;;
15049;SDS011;7622;42.724;23.250;2023-04-01T15:53:35;2.10;;;2.00;;
15049;SDS011;7622;42.724;23.250;2023-04-01T15:56:25;4.90;;;2.67;;
15049;SDS011;7622;42.724;23.250;2023-04-01T15:59:01;4.27;;;3.23;;
15049;SDS011;7622;42.724;23.250;2023-04-01T16:01:38;3.67;;;2.83;;
15049;SDS011;7622;42.724;23.250;2023-04-01T16:04:16;2.90;;;2.70;;
15049;SDS011;7622;42.724;23.250;2023-04-01T16:07:07;3.70;;;3.23;;
15049;SDS011;7622;42.724;23.250;2023-04-01T16:09:43;3.50;;;3.20;;
15049;SDS011;7622;42.724;23.250;2023-04-01T16:12:28;3.83;;;3.13;;
15049;SDS011;7622;42.724;23.250;2023-04-01T16:15:09;3.23;;;2.93;;
15049;SDS011;7622;42.724;23.250;2023-04-01T16:17:50;3.90;;;3.43;;
15049;SDS011;7622;42.724;23.250;2023-04-01T16:20:32;3.50;;;3.30;;
15049;SDS011;7622;42.724;23.250;2023-04-01T16:23:12;3.30;;;3.10;;
15049;SDS011;7622;42.724;23.250;2023-04-01T16:25:45;3.53;;;3.10;;
15049;SDS011;7622;42.724;23.250;2023-04-01T16:28:18;3.97;;;3.50;;
15049;SDS011;7622;42.724;23.250;2023-04-01T16:30:54;3.67;;;3.03;;
15049;SDS011;7622;42.724;23.250;2023-04-01T16:33:26;3.67;;;3.20;;
15049;SDS011;7622;42.724;23.250;2023-04-01T16:36:05;6.30;;;2.80;;
15049;SDS011;7622;42.724;23.250;2023-04-01T16:38:39;6.57;;;3.00;;
15049;SDS011;7622;42.724;23.250;2023-04-01T16:41:14;2.63;;;2.53;;
15049;SDS011;7622;42.724;23.250;2023-04-01T16:43:44;2.30;;;2.20;;
15049;SDS011;7622;42.724;23.250;2023-04-01T16:46:16;2.20;;;2.03;;
15049;SDS011;7622;42.724;23.250;2023-04-01T16:48:58;2.40;;;2.30;;
15049;SDS011;7622;42.724;23.250;2023-04-01T16:51:31;2.07;;;1.97;;
15049;SDS011;7622;42.724;23.250;2023-04-01T16:54:06;1.90;;;1.80;;
15049;SDS011;7622;42.724;23.250;2023-04-01T16:56:40;2.20;;;2.10;;
15049;SDS011;7622;42.724;23.250;2023-04-01T16:59:14;3.70;;;2.20;;
15049;SDS011;7622;42.724;23.250;2023-04-01T17:01:48;2.03;;;1.80;;
15049;SDS011;7622;42.724;23.250;2023-04-01T17:04:21;1.80;;;1.70;;
15049;SDS011;7622;42.724;23.250;2023-04-01T17:06:58;1.60;;;1.50;;